Time;durP1;ratioP1;P1;durP2;ratioP2;P2;SDS_P1;SDS_P2;PMS_P1;PMS_P2;Temp;Humidity;BMP_temperature;BMP_pressure;BME280_temperature;BME280_humidity;BME280_pressure;Samples;Min_cycle;Max_cycle;Signal;HPM_P1;HPM_P2
2023/06/08 00:02:10;;;;;;;;;18.25;18.25;;;;;19.70;51.57;100655.66;5074556;27;46022;-76
2023/06/08 00:04:40;;;;;;;;;17.50;17.50;;;;;19.64;51.17;100645.44;5074693;27;45670;-76
2023/06/08 00:07:08;;;;;;;;;19.25;19.25;;;;;19.65;51.53;100654.31;5073836;28;45391;-77
2023/06/08 00:09:35;;;;;;;;;16.75;16.75;;;;;19.60;51.13;100635.13;5074501;27;47312;-75
2023/06/08 00:12:00;;;;;;;;;17.25;17.25;;;;;19.57;51.61;100633.56;5074601;27;45425;-77
2023/06/08 00:14:25;;;;;;;;;22.00;22.00;;;;;19.58;52.25;100640.59;5072551;28;45263;-77
2023/06/08 00:16:51;;;;;;;;;18.75;18.75;;;;;19.59;52.13;100642.28;5074973;27;45388;-74
2023/06/08 00:19:16;;;;;;;;;18.50;18.50;;;;;19.53;52.13;100635.59;5073537;27;46380;-78
2023/06/08 00:21:43;;;;;;;;;17.50;17.50;;;;;19.51;52.45;100626.88;5074252;27;45560;-74
2023/06/08 00:24:11;;;;;;;;;16.75;16.75;;;;;19.50;52.40;100630.50;5090158;27;45505;-75
2023/06/08 00:26:37;;;;;;;;;23.25;22.00;;;;;19.45;52.91;100627.34;5073356;28;45526;-76
2023/06/08 00:29:02;;;;;;;;;21.75;21.75;;;;;19.38;52.43;100621.66;5074555;27;46048;-77
2023/06/08 00:31:30;;;;;;;;;18.50;18.50;;;;;19.32;53.80;100615.91;5072670;27;45743;-74
2023/06/08 00:33:55;;;;;;;;;21.50;20.50;;;;;19.34;53.57;100632.66;5054392;28;45414;-75
2023/06/08 00:36:21;;;;;;;;;18.25;18.25;;;;;19.27;53.33;100618.97;5053157;28;50279;-72
2023/06/08 00:38:46;;;;;;;;;19.25;19.25;;;;;19.21;54.14;100601.59;5052956;28;48214;-75
2023/06/08 00:41:11;;;;;;;;;20.00;20.00;;;;;19.23;53.89;100617.50;5053275;28;45314;-75
2023/06/08 00:43:37;;;;;;;;;10.75;8.75;;;;;19.20;55.00;100615.91;5054145;28;45364;-75
2023/06/08 00:46:02;;;;;;;;;21.50;20.00;;;;;19.08;54.30;100596.34;5055033;28;45494;-76
2023/06/08 00:48:29;;;;;;;;;18.00;18.00;;;;;19.11;54.83;100609.47;5055417;28;45390;-72
2023/06/08 00:50:56;;;;;;;;;20.50;19.00;;;;;19.14;54.71;100610.19;5055863;28;45271;-73
2023/06/08 00:53:21;;;;;;;;;19.50;19.50;;;;;19.05;54.25;100588.56;5054843;28;45181;-75
2023/06/08 00:55:52;;;;;;;;;20.25;20.25;;;;;19.12;54.61;100605.84;5053414;28;45222;-73
2023/06/08 00:58:18;;;;;;;;;21.25;21.25;;;;;19.04;55.26;100597.53;5054279;28;46544;-75
2023/06/08 01:00:46;;;;;;;;;19.75;19.75;;;;;19.05;55.68;100603.72;5052640;28;45381;-72
2023/06/08 01:03:12;;;;;;;;;23.25;23.25;;;;;18.97;55.64;100598.97;5041039;28;45287;-66
2023/06/08 01:05:38;;;;;;;;;22.00;22.00;;;;;19.00;55.31;100597.91;5054352;28;45594;-76
2023/06/08 01:08:08;;;;;;;;;24.25;23.25;;;;;19.02;55.64;100601.31;5054285;28;45375;-76
2023/06/08 01:10:42;;;;;;;;;25.50;25.50;;;;;18.98;55.54;100598.00;5049290;28;45487;-75
2023/06/08 01:13:27;;;;;;;;;23.75;23.75;;;;;19.01;55.38;100597.78;5034536;28;45430;-75
2023/06/08 01:16:01;;;;;;;;;23.50;21.50;;;;;18.97;55.30;100597.16;5032713;28;45393;-75
2023/06/08 01:18:32;;;;;;;;;19.25;19.25;;;;;18.94;55.85;100597.38;5034113;28;45516;-76
2023/06/08 01:21:08;;;;;;;;;20.00;20.00;;;;;18.95;55.79;100596.41;5041544;28;45387;-72
2023/06/08 01:24:10;;;;;;;;;20.25;20.25;;;;;18.93;56.13;100603.66;5054095;28;45509;-77
2023/06/08 01:26:37;;;;;;;;;26.25;25.00;;;;;18.91;56.36;100602.06;5054776;28;45376;-75
2023/06/08 01:29:05;;;;;;;;;25.00;25.00;;;;;18.91;56.34;100607.41;5054643;28;45284;-74
2023/06/08 01:31:31;;;;;;;;;20.75;20.75;;;;;18.89;56.42;100607.53;5057667;28;45355;-75
2023/06/08 01:33:56;;;;;;;;;21.25;21.25;;;;;18.83;56.75;100592.84;5056327;28;45368;-76
2023/06/08 01:36:30;;;;;;;;;23.75;23.75;;;;;18.81;56.58;100594.75;5057935;28;45623;-74
2023/06/08 01:39:16;;;;;;;;;24.00;24.00;;;;;18.88;56.88;100610.28;5071527;28;45751;-72
2023/06/08 01:41:48;;;;;;;;;23.50;23.50;;;;;18.84;57.31;100605.19;5078055;27;45386;-72
2023/06/08 01:44:18;;;;;;;;;24.00;23.00;;;;;18.81;57.43;100608.09;5069742;27;45374;-76
2023/06/08 01:46:51;;;;;;;;;21.75;21.75;;;;;18.78;57.06;100605.66;5057650;28;45356;-73
2023/06/08 01:49:17;;;;;;;;;23.25;23.25;;;;;18.80;56.57;100617.03;5057532;28;45576;-75
2023/06/08 01:51:43;;;;;;;;;23.75;23.75;;;;;18.79;57.21;100610.03;5057248;28;45470;-74
2023/06/08 01:54:08;;;;;;;;;23.50;23.50;;;;;18.82;57.58;100622.28;5057757;28;45277;-70
2023/06/08 01:56:35;;;;;;;;;25.75;25.75;;;;;18.80;57.23;100616.22;5057950;28;45610;-73
2023/06/08 01:59:01;;;;;;;;;24.00;24.00;;;;;18.75;57.83;100616.53;5056804;28;45498;-72
2023/06/08 02:01:27;;;;;;;;;24.00;24.00;;;;;18.67;58.23;100610.94;5036845;28;45362;-67
2023/06/08 02:03:52;;;;;;;;;26.00;26.00;;;;;18.69;58.02;100615.19;5046529;28;45821;-73
2023/06/08 02:06:17;;;;;;;;;24.25;24.25;;;;;18.67;58.28;100617.13;5051265;28;45438;-73
2023/06/08 02:08:43;;;;;;;;;21.75;21.75;;;;;18.60;58.43;100607.88;5048934;28;45573;-68
2023/06/08 02:11:10;;;;;;;;;25.75;25.75;;;;;18.49;58.69;100592.69;5040978;28;45520;-77
2023/06/08 02:13:42;;;;;;;;;27.25;27.00;;;;;18.58;59.01;100614.28;5044636;28;45413;-76
2023/06/08 02:16:09;;;;;;;;;23.25;23.25;;;;;18.53;58.98;100612.81;5040970;28;45221;-74
2023/06/08 02:18:40;;;;;;;;;29.75;29.75;;;;;18.54;59.49;100617.16;5036924;28;45482;-76
2023/06/08 02:21:06;;;;;;;;;29.50;29.50;;;;;18.57;59.46;100620.56;5054541;28;45322;-77
2023/06/08 02:23:32;;;;;;;;;30.50;30.25;;;;;18.54;59.39;100618.97;5052681;28;45588;-76
2023/06/08 02:25:57;;;;;;;;;26.00;25.00;;;;;18.54;59.51;100618.97;5043198;28;45464;-74
2023/06/08 02:28:23;;;;;;;;;25.25;25.25;;;;;18.52;59.51;100613.78;5036877;28;45432;-77
2023/06/08 02:30:48;;;;;;;;;25.75;25.75;;;;;18.44;59.46;100596.63;5036710;28;45201;-73
2023/06/08 02:33:14;;;;;;;;;23.50;23.50;;;;;18.57;59.37;100621.44;5041115;28;45435;-76
2023/06/08 02:35:39;;;;;;;;;33.75;31.50;;;;;18.56;59.51;100626.84;5056535;28;45493;-76
2023/06/08 02:38:05;;;;;;;;;29.25;29.25;;;;;18.53;59.85;100617.25;5044358;28;46410;-77
2023/06/08 02:40:31;;;;;;;;;26.00;26.00;;;;;18.52;60.04;100607.56;5041887;28;45319;-73
2023/06/08 02:42:57;;;;;;;;;28.25;28.25;;;;;18.48;59.94;100614.09;5046868;28;45303;-73
2023/06/08 02:45:22;;;;;;;;;28.00;28.00;;;;;18.45;60.03;100612.53;5051713;28;45437;-76
2023/06/08 02:47:48;;;;;;;;;27.75;27.00;;;;;18.40;60.36;100614.66;5044210;28;46983;-76
2023/06/08 02:50:13;;;;;;;;;25.00;25.00;;;;;18.39;60.21;100605.81;5041065;28;52608;-76
2023/06/08 02:52:38;;;;;;;;;28.25;28.25;;;;;18.36;60.58;100597.22;5055682;28;45660;-75
2023/06/08 02:55:04;;;;;;;;;25.00;25.00;;;;;18.34;60.42;100596.47;5055612;28;45505;-76
2023/06/08 02:57:30;;;;;;;;;24.00;24.00;;;;;18.41;60.67;100605.72;5056160;28;47855;-76
2023/06/08 02:59:55;;;;;;;;;29.00;28.00;;;;;18.35;60.53;100604.34;5056541;28;45245;-72
2023/06/08 03:02:20;;;;;;;;;28.75;28.75;;;;;18.36;60.93;100607.88;5054264;28;45344;-76
2023/06/08 03:04:46;;;;;;;;;22.50;22.50;;;;;18.33;60.79;100594.78;5056996;28;45491;-73
2023/06/08 03:07:15;;;;;;;;;31.50;30.75;;;;;18.25;60.96;100590.84;5056118;28;46310;-76
2023/06/08 03:09:41;;;;;;;;;24.00;22.50;;;;;18.29;60.81;100607.44;5054553;28;45431;-74
2023/06/08 03:12:09;;;;;;;;;43.25;38.00;;;;;18.25;61.13;100604.16;5071888;27;45352;-74
2023/06/08 03:14:35;;;;;;;;;44.00;37.50;;;;;18.14;61.03;100587.25;5055988;28;45490;-74
2023/06/08 03:17:03;;;;;;;;;48.50;40.75;;;;;18.21;61.04;100604.50;5055976;28;45464;-72
2023/06/08 03:19:32;;;;;;;;;43.00;38.00;;;;;18.13;61.29;100597.06;5056602;28;45592;-75
2023/06/08 03:22:02;;;;;;;;;45.50;37.50;;;;;18.09;61.38;100592.94;5076417;27;45529;-73
2023/06/08 03:24:28;;;;;;;;;43.00;37.25;;;;;18.06;61.30;100590.50;5076554;27;45478;-77
2023/06/08 03:26:55;;;;;;;;;39.25;35.75;;;;;17.99;61.60;100587.38;5075936;27;45516;-73
2023/06/08 03:29:21;;;;;;;;;32.50;31.25;;;;;17.92;61.58;100578.97;5074858;27;45488;-74
2023/06/08 03:31:47;;;;;;;;;28.50;28.50;;;;;17.93;61.46;100585.97;5076942;27;45339;-73
2023/06/08 03:34:12;;;;;;;;;30.75;29.00;;;;;17.93;61.52;100593.97;5077463;27;45674;-74
2023/06/08 03:36:38;;;;;;;;;25.50;25.50;;;;;17.89;61.83;100589.81;5077864;27;45982;-75
2023/06/08 03:39:04;;;;;;;;;28.25;28.25;;;;;17.86;61.91;100589.22;5077654;27;45742;-69
2023/06/08 03:41:30;;;;;;;;;27.00;27.00;;;;;17.78;61.97;100587.94;5077759;27;45261;-74
2023/06/08 03:43:56;;;;;;;;;24.50;24.50;;;;;17.73;61.68;100584.75;5061330;27;45515;-73
2023/06/08 03:46:21;;;;;;;;;23.50;23.50;;;;;17.76;61.90;100594.31;5056015;28;45231;-76
2023/06/08 03:48:50;;;;;;;;;27.50;27.50;;;;;17.72;61.95;100571.56;5056407;28;45383;-74
2023/06/08 03:51:15;;;;;;;;;24.75;24.75;;;;;17.69;61.88;100582.41;5056311;28;45427;-70
2023/06/08 03:53:41;;;;;;;;;26.25;26.25;;;;;17.70;61.88;100595.63;5056037;28;45240;-70
2023/06/08 03:56:06;;;;;;;;;24.00;24.00;;;;;17.67;62.31;100591.34;5045723;28;45682;-73
2023/06/08 03:58:32;;;;;;;;;27.75;27.75;;;;;17.63;62.37;100591.69;5049668;28;45445;-72
2023/06/08 04:00:58;;;;;;;;;24.25;24.25;;;;;17.62;62.59;100590.81;5054670;28;45284;-73
2023/06/08 04:03:25;;;;;;;;;25.00;24.00;;;;;17.58;62.97;100584.00;5054795;28;45543;-73
2023/06/08 04:05:51;;;;;;;;;26.50;26.50;;;;;17.50;63.24;100583.69;5055627;28;45405;-69
2023/06/08 04:08:17;;;;;;;;;29.00;27.50;;;;;17.47;63.23;100583.91;5050695;28;45438;-67
2023/06/08 04:10:43;;;;;;;;;27.25;27.25;;;;;17.41;63.53;100579.03;5040833;28;45257;-77
2023/06/08 04:13:08;;;;;;;;;26.75;26.50;;;;;17.44;63.40;100595.59;5055797;28;45180;-75
2023/06/08 04:15:34;;;;;;;;;25.75;25.75;;;;;17.45;63.51;100586.66;5055230;28;45453;-72
2023/06/08 04:18:01;;;;;;;;;27.50;27.50;;;;;17.42;63.71;100591.34;5055464;28;45382;-73
2023/06/08 04:20:27;;;;;;;;;28.00;28.00;;;;;17.41;63.86;100584.34;5055413;28;45461;-76
2023/06/08 04:22:53;;;;;;;;;26.25;26.25;;;;;17.38;64.16;100580.06;5055760;28;45357;-75
2023/06/08 04:25:19;;;;;;;;;27.25;26.50;;;;;17.38;64.27;100588.91;5056247;28;45277;-77
2023/06/08 04:27:45;;;;;;;;;28.00;28.00;;;;;17.34;64.39;100578.56;5059736;28;45382;-76
2023/06/08 04:30:11;;;;;;;;;29.25;28.75;;;;;17.34;64.44;100578.56;5076051;27;45240;-75
2023/06/08 04:32:36;;;;;;;;;25.75;25.75;;;;;17.35;64.59;100586.47;5074352;28;45261;-74
2023/06/08 04:35:03;;;;;;;;;29.25;29.25;;;;;17.31;64.77;100565.50;5074939;27;45355;-73
2023/06/08 04:37:29;;;;;;;;;29.25;29.25;;;;;17.33;64.59;100579.53;5074869;27;45503;-75
2023/06/08 04:39:56;;;;;;;;;29.00;29.00;;;;;17.30;64.81;100577.94;5075150;28;45402;-73
2023/06/08 04:42:23;;;;;;;;;27.25;27.25;;;;;17.32;64.81;100585.81;5075192;27;45475;-71
2023/06/08 04:44:50;;;;;;;;;33.25;31.75;;;;;17.29;65.45;100576.25;5052714;28;48295;-68
2023/06/08 04:47:16;;;;;;;;;27.25;26.75;;;;;17.30;65.67;100583.28;5054540;28;45417;-68
2023/06/08 04:49:42;;;;;;;;;28.75;28.75;;;;;17.30;65.67;100577.94;5054674;28;45323;-71
2023/06/08 04:52:09;;;;;;;;;28.50;28.50;;;;;17.28;66.25;100579.88;5053540;28;45324;-70
2023/06/08 04:54:36;;;;;;;;;28.25;28.25;;;;;17.28;66.52;100585.19;5054373;28;46582;-69
2023/06/08 04:57:03;;;;;;;;;31.00;30.25;;;;;17.27;66.99;100577.31;5054328;28;45467;-67
2023/06/08 04:59:29;;;;;;;;;30.00;29.75;;;;;17.38;66.57;100580.06;5054779;28;45426;-72
2023/06/08 05:01:54;;;;;;;;;29.50;29.50;;;;;17.49;66.85;100577.50;5060368;28;45465;-67
2023/06/08 05:04:21;;;;;;;;;27.75;27.75;;;;;17.56;66.86;100583.28;5074210;28;45929;-68
2023/06/08 05:06:47;;;;;;;;;30.50;30.50;;;;;17.62;66.14;100576.69;5077962;27;45372;-74
2023/06/08 05:09:12;;;;;;;;;33.00;32.00;;;;;17.73;65.93;100573.25;5052956;27;45410;-73
2023/06/08 05:11:39;;;;;;;;;28.75;28.75;;;;;17.87;65.85;100583.75;5044451;28;45709;-69
2023/06/08 05:14:04;;;;;;;;;33.00;32.00;;;;;17.98;65.62;100584.81;5056441;28;46747;-71
2023/06/08 05:16:30;;;;;;;;;31.75;30.50;;;;;18.04;65.61;100582.59;5046567;28;45496;-71
2023/06/08 05:18:55;;;;;;;;;30.25;29.75;;;;;18.15;65.30;100591.63;5055722;28;45364;-70
2023/06/08 05:21:21;;;;;;;;;31.25;30.25;;;;;18.23;65.25;100591.91;5050582;28;45533;-71
2023/06/08 05:23:47;;;;;;;;;33.50;32.25;;;;;18.25;64.99;100590.84;5058802;28;45355;-70
2023/06/08 05:26:12;;;;;;;;;26.00;26.00;;;;;18.33;65.46;100594.78;5053129;28;45328;-74
2023/06/08 05:28:38;;;;;;;;;30.75;29.75;;;;;18.39;64.89;100586.34;5037955;28;45453;-74
2023/06/08 05:31:03;;;;;;;;;36.50;33.50;;;;;18.45;65.25;100585.88;5038223;28;45433;-75
2023/06/08 05:33:28;;;;;;;;;35.25;33.25;;;;;18.46;65.25;100576.94;5042015;28;46031;-77
2023/06/08 05:35:53;;;;;;;;;33.25;29.75;;;;;18.49;65.39;100568.72;5044397;28;45418;-67
2023/06/08 05:38:22;;;;;;;;;36.75;33.50;;;;;18.54;65.88;100576.34;5053148;28;45445;-70
2023/06/08 05:40:47;;;;;;;;;35.25;32.25;;;;;18.47;65.83;100567.13;5044160;28;46586;-72
2023/06/08 05:43:12;;;;;;;;;36.25;33.00;;;;;18.50;66.06;100567.75;5037968;28;51588;-71
2023/06/08 05:45:38;;;;;;;;;36.00;33.25;;;;;18.51;65.88;100563.25;5039685;28;45288;-72
2023/06/08 05:48:03;;;;;;;;;37.50;34.50;;;;;18.59;65.52;100566.22;5037880;28;45400;-78
2023/06/08 05:50:29;;;;;;;;;35.75;33.25;;;;;18.68;65.45;100565.53;5048693;28;45522;-72
2023/06/08 05:52:54;;;;;;;;;34.50;33.00;;;;;18.73;65.35;100561.69;5056616;28;45453;-72
2023/06/08 05:55:20;;;;;;;;;40.50;36.50;;;;;18.75;65.21;100559.75;5051627;28;45268;-76
2023/06/08 05:57:45;;;;;;;;;35.50;33.25;;;;;18.76;65.43;100564.94;5049075;28;45543;-74
2023/06/08 06:00:12;;;;;;;;;34.50;32.25;;;;;18.70;65.42;100554.75;5057281;28;45492;-69
2023/06/08 06:02:38;;;;;;;;;38.00;34.00;;;;;18.80;65.42;100571.75;5054805;28;46583;-73
2023/06/08 06:05:04;;;;;;;;;39.75;35.25;;;;;18.81;65.43;100561.97;5056964;28;45427;-73
2023/06/08 06:07:30;;;;;;;;;43.75;37.75;;;;;18.87;65.22;100565.97;5057234;28;45246;-71
2023/06/08 06:09:55;;;;;;;;;40.00;35.75;;;;;18.90;65.57;100560.38;5063157;28;45611;-75
2023/06/08 06:12:21;;;;;;;;;38.50;34.75;;;;;18.91;65.35;100560.28;5062697;27;46916;-76
2023/06/08 06:14:48;;;;;;;;;39.00;35.25;;;;;18.91;65.44;100562.09;5039689;28;45985;-73
2023/06/08 06:17:15;;;;;;;;;38.50;35.00;;;;;18.90;65.79;100557.72;5037804;28;45220;-67
2023/06/08 06:19:41;;;;;;;;;37.75;34.50;;;;;18.91;65.80;100562.97;5051220;28;45430;-67
2023/06/08 06:22:08;;;;;;;;;42.00;37.00;;;;;18.93;66.03;100560.16;5055643;28;46490;-68
2023/06/08 06:24:34;;;;;;;;;40.00;35.25;;;;;18.89;65.91;100554.22;5055500;28;45413;-67
2023/06/08 06:27:01;;;;;;;;;42.00;37.00;;;;;18.87;66.56;100555.28;5056499;28;45220;-68
2023/06/08 06:29:26;;;;;;;;;43.50;36.25;;;;;18.85;66.79;100560.75;5056830;28;45423;-67
2023/06/08 06:31:52;;;;;;;;;39.75;35.50;;;;;18.83;67.76;100558.19;5052582;28;46034;-66
2023/06/08 06:34:19;;;;;;;;;43.50;37.00;;;;;18.84;67.05;100559.88;5038101;28;65327;-75
2023/06/08 06:36:44;;;;;;;;;42.25;37.00;;;;;18.86;67.22;100553.59;5051860;28;45446;-77
2023/06/08 06:39:10;;;;;;;;;45.25;39.00;;;;;18.93;66.91;100560.16;5057003;28;45359;-75
2023/06/08 06:41:35;;;;;;;;;45.50;38.25;;;;;18.98;67.22;100548.22;5054718;28;47487;-76
2023/06/08 06:44:00;;;;;;;;;39.50;35.00;;;;;19.01;67.09;100557.78;5055358;28;45377;-77
2023/06/08 06:46:26;;;;;;;;;46.00;39.50;;;;;19.09;67.11;100557.22;5056705;28;45257;-76
2023/06/08 06:48:51;;;;;;;;;45.00;39.00;;;;;19.10;67.15;100553.59;5038742;28;45441;-76
2023/06/08 06:51:17;;;;;;;;;48.50;41.00;;;;;19.14;67.19;100547.03;5051161;28;46908;-75
2023/06/08 06:53:42;;;;;;;;;42.50;36.00;;;;;19.21;66.77;100558.09;5055923;28;45402;-79
2023/06/08 06:56:07;;;;;;;;;46.50;40.25;;;;;19.26;67.10;100556.75;5055967;28;45638;-72
2023/06/08 06:58:33;;;;;;;;;44.25;38.00;;;;;19.23;66.80;100550.84;5056413;28;45978;-72
2023/06/08 07:00:58;;;;;;;;;44.25;38.25;;;;;19.31;67.13;100548.41;5061794;28;45511;-72
2023/06/08 07:03:26;;;;;;;;;48.50;40.75;;;;;19.35;66.79;100555.22;5054737;27;45510;-75
2023/06/08 07:05:53;;;;;;;;;45.75;39.25;;;;;19.37;67.33;100560.41;5051746;28;45459;-73
2023/06/08 07:08:19;;;;;;;;;48.25;40.50;;;;;19.40;67.23;100566.38;5055812;28;45606;-72
2023/06/08 07:10:44;;;;;;;;;45.50;38.75;;;;;19.44;66.98;100560.78;5055393;28;46393;-72
2023/06/08 07:13:09;;;;;;;;;48.00;40.75;;;;;19.47;67.35;100558.72;5048247;28;45872;-67
2023/06/08 07:15:36;;;;;;;;;43.50;37.50;;;;;19.53;67.00;100565.41;5053686;28;45408;-70
2023/06/08 07:18:01;;;;;;;;;49.75;42.00;;;;;19.55;67.21;100568.81;5054133;28;45462;-70
2023/06/08 07:20:26;;;;;;;;;48.00;41.00;;;;;19.61;66.81;100557.66;5054827;28;45442;-73
2023/06/08 07:22:52;;;;;;;;;44.25;38.25;;;;;19.69;66.91;100557.88;5054712;28;47820;-68
2023/06/08 07:25:17;;;;;;;;;46.75;39.75;;;;;19.74;66.98;100546.84;5053162;28;53358;-73
2023/06/08 07:27:44;;;;;;;;;45.25;38.50;;;;;19.89;66.57;100560.78;5048879;28;45430;-71
2023/06/08 07:30:10;;;;;;;;;45.75;39.00;;;;;19.98;65.93;100551.22;5032873;28;47160;-70
2023/06/08 07:32:36;;;;;;;;;44.75;37.50;;;;;20.07;65.96;100554.97;5032427;28;45705;-67
2023/06/08 07:35:04;;;;;;;;;47.75;40.50;;;;;20.09;65.41;100551.22;5033079;28;50647;-70
2023/06/08 07:37:29;;;;;;;;;50.00;42.00;;;;;20.15;65.92;100549.88;5034159;28;45630;-72
2023/06/08 07:39:54;;;;;;;;;48.50;41.50;;;;;20.20;65.23;100553.03;5031667;28;47163;-71
2023/06/08 07:42:20;;;;;;;;;48.50;41.50;;;;;20.22;65.79;100548.41;5032635;28;45761;-69
2023/06/08 07:44:45;;;;;;;;;49.00;40.75;;;;;20.28;65.37;100547.03;5034171;28;45446;-72
2023/06/08 07:47:10;;;;;;;;;44.25;38.75;;;;;20.33;65.29;100544.00;5034055;28;45871;-71
2023/06/08 07:49:35;;;;;;;;;44.50;38.75;;;;;20.41;65.60;100549.56;5032668;28;47300;-67
2023/06/08 07:52:01;;;;;;;;;48.50;41.25;;;;;20.45;65.46;100545.66;5034697;28;45359;-68
2023/06/08 07:54:26;;;;;;;;;44.75;39.00;;;;;20.43;64.96;100534.25;5033902;28;45407;-69
2023/06/08 07:56:52;;;;;;;;;43.25;37.00;;;;;20.52;65.04;100545.97;5033644;28;45501;-72
2023/06/08 07:59:17;;;;;;;;;46.00;40.00;;;;;20.58;64.81;100550.81;5035384;28;45762;-70
2023/06/08 08:01:43;;;;;;;;;48.00;40.50;;;;;20.61;65.40;100547.03;5035102;28;45528;-72
2023/06/08 08:04:09;;;;;;;;;46.00;39.25;;;;;20.65;65.32;100548.50;5035429;28;45827;-72
2023/06/08 08:06:34;;;;;;;;;44.25;38.00;;;;;20.64;65.07;100536.09;5034249;28;45480;-68
2023/06/08 08:09:00;;;;;;;;;45.50;38.75;;;;;20.79;64.24;100547.38;5034140;28;47467;-72
2023/06/08 08:11:26;;;;;;;;;45.00;38.50;;;;;20.86;64.42;100548.56;5033730;28;45410;-74
2023/06/08 08:13:52;;;;;;;;;42.50;37.00;;;;;20.95;64.41;100546.91;5035233;28;45252;-69
2023/06/08 08:16:18;;;;;;;;;45.25;39.25;;;;;21.01;64.00;100552.59;5035115;28;45639;-73
2023/06/08 08:18:43;;;;;;;;;42.75;36.75;;;;;21.08;63.61;100542.19;5034966;28;45733;-70
2023/06/08 08:21:09;;;;;;;;;45.00;39.00;;;;;21.15;63.43;100542.53;5035104;28;45268;-72
2023/06/08 08:23:34;;;;;;;;;43.00;37.50;;;;;21.28;63.42;100545.03;5035331;28;45337;-68
2023/06/08 08:25:59;;;;;;;;;40.75;35.50;;;;;21.35;63.23;100537.28;5035647;28;45438;-72
2023/06/08 08:28:25;;;;;;;;;43.25;38.25;;;;;21.43;62.73;100535.66;5034080;28;63188;-70
2023/06/08 08:30:50;;;;;;;;;43.25;37.50;;;;;21.49;62.51;100533.44;5034722;28;45278;-71
2023/06/08 08:33:15;;;;;;;;;40.25;35.25;;;;;21.50;62.39;100519.91;5034863;28;45268;-70
2023/06/08 08:35:41;;;;;;;;;41.75;36.00;;;;;21.54;62.23;100531.19;5035142;28;45335;-72
2023/06/08 08:38:06;;;;;;;;;44.50;38.25;;;;;21.60;62.42;100520.78;5034725;28;46054;-70
2023/06/08 08:40:31;;;;;;;;;43.75;38.00;;;;;21.65;61.79;100519.56;5034195;28;45279;-70
2023/06/08 08:43:24;;;;;;;;;40.50;35.50;;;;;21.70;61.89;100509.28;5033743;28;45883;-73
2023/06/08 08:45:51;;;;;;;;;43.25;37.00;;;;;21.73;61.63;100514.38;5033924;28;45567;-73
2023/06/08 08:48:19;;;;;;;;;43.25;37.50;;;;;21.74;61.23;100502.72;5034817;28;45489;-71
2023/06/08 08:50:53;;;;;;;;;41.00;35.00;;;;;21.77;61.14;100498.91;5034948;28;45327;-73
2023/06/08 08:53:27;;;;;;;;;42.00;37.00;;;;;21.88;61.22;100518.38;5035132;28;45693;-73
2023/06/08 08:55:55;;;;;;;;;46.50;39.75;;;;;21.94;61.00;100514.28;5033719;28;45430;-70
2023/06/08 08:58:21;;;;;;;;;41.25;36.50;;;;;21.97;60.95;100502.47;5049904;28;47327;-73
2023/06/08 09:00:50;;;;;;;;;40.50;35.50;;;;;22.04;60.40;100500.94;5033038;28;45422;-73
2023/06/08 09:03:15;;;;;;;;;43.75;38.00;;;;;22.21;60.06;100507.41;5034501;28;45377;-71
2023/06/08 09:05:43;;;;;;;;;42.25;36.50;;;;;22.22;59.66;100498.41;5034628;28;45324;-71
2023/06/08 09:08:10;;;;;;;;;44.00;38.00;;;;;22.31;59.77;100502.94;5034290;28;46168;-71
2023/06/08 09:10:35;;;;;;;;;42.00;36.75;;;;;22.36;59.51;100499.81;5033201;28;45336;-71
2023/06/08 09:13:02;;;;;;;;;40.00;35.25;;;;;22.38;59.23;100494.34;5033000;28;45351;-72
2023/06/08 09:15:37;;;;;;;;;43.00;37.75;;;;;22.49;59.10;100498.72;5034913;28;45231;-70
2023/06/08 09:18:23;;;;;;;;;41.50;36.50;;;;;22.57;58.45;100498.88;5034507;28;45355;-73
2023/06/08 09:20:50;;;;;;;;;41.00;36.00;;;;;22.61;58.18;100495.78;5033896;28;45430;-70
2023/06/08 09:23:26;;;;;;;;;41.50;37.00;;;;;22.67;58.59;100498.88;5034127;28;45341;-73
2023/06/08 09:25:52;;;;;;;;;38.00;34.50;;;;;22.74;58.27;100494.63;5032926;28;45427;-73
2023/06/08 09:28:28;;;;;;;;;39.50;35.00;;;;;22.78;57.91;100487.97;5034175;28;45515;-72
2023/06/08 09:30:57;;;;;;;;;38.50;34.25;;;;;22.86;57.53;100485.44;5033847;28;45397;-72
2023/06/08 09:33:29;;;;;;;;;37.00;33.00;;;;;22.96;57.33;100489.91;5034075;28;45186;-71
2023/06/08 09:35:57;;;;;;;;;38.75;33.50;;;;;22.99;56.83;100492.31;5034805;28;45476;-70
2023/06/08 09:38:26;;;;;;;;;37.75;34.00;;;;;23.02;57.29;100476.78;5032500;28;48567;-70
2023/06/08 09:41:17;;;;;;;;;36.00;33.25;;;;;23.19;56.43;100487.75;5033971;28;45424;-74
2023/06/08 09:43:44;;;;;;;;;42.25;36.75;;;;;23.30;56.60;100494.78;5032290;28;45380;-71
2023/06/08 09:46:17;;;;;;;;;36.50;33.50;;;;;23.33;56.22;100486.47;5032914;28;45510;-68
2023/06/08 09:48:53;;;;;;;;;42.00;35.25;;;;;23.37;56.00;100481.63;5033652;28;45616;-67
2023/06/08 09:51:18;;;;;;;;;43.00;37.00;;;;;23.43;55.31;100486.41;5035811;28;45289;-72
2023/06/08 09:53:45;;;;;;;;;34.00;31.50;;;;;23.51;55.04;100486.50;5037410;28;45190;-74
2023/06/08 09:56:13;;;;;;;;;40.25;35.00;;;;;23.54;55.08;100488.91;5037516;28;45426;-72
2023/06/08 09:58:40;;;;;;;;;34.00;31.50;;;;;23.64;54.46;100483.50;5052739;28;46142;-73
2023/06/08 10:01:09;;;;;;;;;38.50;34.50;;;;;23.68;53.72;100474.13;5037167;28;45213;-71
2023/06/08 10:03:47;;;;;;;;;36.75;33.50;;;;;23.76;55.00;100470.69;5037131;28;45537;-73
2023/06/08 10:06:15;;;;;;;;;59.50;48.75;;;;;23.86;54.65;100474.19;5037195;28;45449;-70
2023/06/08 10:08:45;;;;;;;;;43.75;37.00;;;;;23.97;54.26;100474.97;5036924;28;45862;-75
2023/06/08 10:11:13;;;;;;;;;36.75;33.25;;;;;24.08;52.74;100469.38;5036664;28;45549;-69
2023/06/08 10:13:39;;;;;;;;;39.50;35.00;;;;;24.06;52.85;100466.84;5036838;28;45388;-72
2023/06/08 10:16:06;;;;;;;;;44.75;38.25;;;;;24.09;52.68;100459.47;5036729;28;45259;-68
2023/06/08 10:18:32;;;;;;;;;34.75;32.25;;;;;24.21;51.81;100468.97;5036383;28;46300;-69
2023/06/08 10:21:01;;;;;;;;;37.25;33.00;;;;;24.28;52.49;100462.00;5036465;28;45381;-70
2023/06/08 10:23:28;;;;;;;;;34.75;31.75;;;;;24.39;51.28;100468.13;5036558;28;45284;-72
2023/06/08 10:25:55;;;;;;;;;31.00;29.50;;;;;24.45;51.57;100465.69;5036660;28;45466;-73
2023/06/08 10:28:21;;;;;;;;;34.75;32.00;;;;;24.55;50.50;100465.59;5036437;28;45394;-71
2023/06/08 10:30:46;;;;;;;;;29.75;29.00;;;;;24.65;50.72;100469.03;5036739;28;45367;-70
2023/06/08 10:33:20;;;;;;;;;29.75;29.00;;;;;24.66;50.58;100448.34;5036519;28;45311;-72
2023/06/08 10:36:06;;;;;;;;;32.75;30.50;;;;;24.78;50.29;100465.13;5036486;28;45317;-72
2023/06/08 10:39:10;;;;;;;;;31.50;29.75;;;;;24.84;49.04;100458.25;5036355;28;45299;-73
2023/06/08 10:41:57;;;;;;;;;34.75;31.25;;;;;24.86;48.64;100449.03;5024497;28;45343;-70
2023/06/08 10:44:27;;;;;;;;;37.75;34.00;;;;;24.94;49.00;100445.56;5036355;28;45290;-71
2023/06/08 10:47:19;;;;;;;;;36.75;33.25;;;;;24.98;47.71;100441.53;5036835;28;45401;-67
2023/06/08 10:49:46;;;;;;;;;32.50;30.50;;;;;25.04;47.28;100446.28;5034758;28;45587;-72
2023/06/08 10:52:17;;;;;;;;;29.50;29.00;;;;;25.11;47.18;100441.09;5036255;28;45278;-73
2023/06/08 10:54:53;;;;;;;;;31.00;30.00;;;;;25.19;47.50;100441.13;5036200;28;45277;-72
2023/06/08 10:57:43;;;;;;;;;34.00;31.00;;;;;25.28;46.31;100438.47;5036196;28;45240;-73
2023/06/08 11:00:29;;;;;;;;;32.25;30.50;;;;;25.32;46.17;100421.84;5036101;28;46389;-71
2023/06/08 11:03:03;;;;;;;;;32.25;31.00;;;;;25.41;46.41;100420.00;5034945;28;45629;-71
2023/06/08 11:05:30;;;;;;;;;26.50;26.50;;;;;25.51;44.91;100420.78;5051127;28;45909;-74
2023/06/08 11:07:56;;;;;;;;;26.50;26.50;;;;;25.62;43.78;100418.78;5035833;28;45240;-71
2023/06/08 11:10:23;;;;;;;;;28.25;27.75;;;;;25.74;44.90;100416.59;5035250;28;45380;-71
2023/06/08 11:12:49;;;;;;;;;33.50;31.00;;;;;25.85;45.40;100408.19;5035499;28;45351;-71